Time,TemperatureF,DewpointF,PressureIn,WindDirection,WindDirectionDegrees,WindSpeedMPH,WindSpeedGustMPH,Humidity,HourlyPrecipIn,Conditions,Clouds,dailyrainin,SoftwareType,DateUTC
2015-04-25 00:00:00,48.0,44.9,30.08,SSW,200,0.0,0.0,89,0.00,CLR,,0.00,WeatherDisplay:10.37,2015-04-25 04:00:00,
2015-04-25 00:05:00,48.0,44.9,30.08,SSW,200,0.0,0.0,89,0.00,CLR,,0.00,WeatherDisplay:10.37,2015-04-25 04:05:00,
2015-04-25 00:10:00,48.0,45.2,30.08,SSW,200,0.0,0.0,90,0.00,CLR,,0.00,WeatherDisplay:10.37,2015-04-25 04:10:00,
2015-04-25 00:15:00,48.1,45.3,30.08,SSW,200,0.0,0.0,90,0.00,CLR,,0.00,WeatherDisplay:10.37,2015-04-25 04:15:00,
2015-04-25 00:20:00,48.1,45.3,30.08,SSW,200,0.0,0.0,90,0.00,CLR,,0.00,WeatherDisplay:10.37,2015-04-25 04:20:00,
2015-04-25 00:25:00,48.1,45.0,30.08,SSW,200,0.0,0.0,89,0.00,CLR,,0.00,WeatherDisplay:10.37,2015-04-25 04:25:00,
2015-04-25 00:30:00,48.1,45.0,30.08,SE,137,0.0,0.0,89,0.00,CLR,,0.00,WeatherDisplay:10.37,2015-04-25 04:30:00,
2015-04-25 00:35:00,48.2,45.1,30.08,SE,137,0.0,0.0,89,0.00,CLR,,0.00,WeatherDisplay:10.37,2015-04-25 04:35:00,
2015-04-25 00:40:00,48.1,45.0,30.07,SE,138,0.0,1.1,89,0.00,CLR,,0.00,WeatherDisplay:10.37,2015-04-25 04:40:00,
2015-04-25 00:45:00,48.2,44.8,30.08,SE,138,0.0,0.0,88,0.00,CLR,,0.00,WeatherDisplay:10.37,2015-04-25 04:45:00,
2015-04-25 00:50:00,48.2,44.5,30.08,SE,142,0.0,1.1,87,0.00,CLR,,0.00,WeatherDisplay:10.37,2015-04-25 04:50:00,
2015-04-25 00:55:00,48.2,44.8,30.07,SSE,160,0.0,0.0,88,0.00,CLR,,0.00,WeatherDisplay:10.37,2015-04-25 04:55:00,
2015-04-25 01:00:00,48.2,45.1,30.08,SSE,161,0.1,0.0,89,0.00,CLR,,0.00,WeatherDisplay:10.37,2015-04-25 05:00:00,
2015-04-25 01:05:00,48.3,44.9,30.08,South,178,0.1,0.0,88,0.00,CLR,,0.00,WeatherDisplay:10.37,2015-04-25 05:05:00,
2015-04-25 01:10:00,48.3,44.9,30.08,South,178,0.0,1.1,88,0.00,CLR,,0.00,WeatherDisplay:10.37,2015-04-25 05:10:00,
2015-04-25 01:15:00,48.5,44.8,30.08,SSE,167,0.1,2.3,87,0.00,CLR,,0.00,WeatherDisplay:10.37,2015-04-25 05:15:00,
2015-04-25 01:20:00,48.6,44.6,30.08,SSE,167,0.0,0.0,86,0.00,CLR,,0.00,WeatherDisplay:10.37,2015-04-25 05:20:00,
2015-04-25 01:25:00,48.7,45.0,30.08,SSE,165,1.0,1.1,87,0.00,CLR,,0.00,WeatherDisplay:10.37,2015-04-25 05:25:00,
2015-04-25 01:30:00,48.8,44.5,30.07,SSE,165,0.5,1.1,85,0.00,CLR,,0.00,WeatherDisplay:10.37,2015-04-25 05:30:00,
2015-04-25 01:35:00,49.0,45.0,30.07,SSE,166,0.0,0.0,86,0.00,CLR,,0.00,WeatherDisplay:10.37,2015-04-25 05:35:00,
2015-04-25 01:40:00,49.6,45.0,30.07,SSE,167,0.0,2.3,84,0.00,CLR,,0.00,WeatherDisplay:10.37,2015-04-25 05:40:00,
2015-04-25 01:45:00,49.9,44.9,30.07,SSE,158,0.7,3.5,83,0.00,CLR,,0.00,WeatherDisplay:10.37,2015-04-25 05:45:00,
2015-04-25 01:50:00,50.3,45.0,30.07,SSE,167,0.0,0.0,82,0.00,CLR,,0.00,WeatherDisplay:10.37,2015-04-25 05:50:00,
2015-04-25 01:55:00,50.3,45.0,30.07,SSE,167,0.0,0.0,82,0.00,CLR,,0.00,WeatherDisplay:10.37,2015-04-25 05:55:00,
2015-04-25 02:00:00,50.3,45.0,30.06,SSE,167,0.0,0.0,82,0.00,CLR,,0.00,WeatherDisplay:10.37,2015-04-25 06:00:00,
2015-04-25 02:05:00,50.3,45.0,30.06,North,0,0.0,0.0,82,0.00,CLR,,0.00,WeatherDisplay:10.37,2015-04-25 06:05:00,
2015-04-25 02:10:00,50.3,45.0,30.06,North,0,0.0,0.0,82,0.00,CLR,,0.00,WeatherDisplay:10.37,2015-04-25 06:10:00,
2015-04-25 02:15:00,50.3,45.0,30.05,North,0,0.0,0.0,82,0.00,CLR,,0.00,WeatherDisplay:10.37,2015-04-25 06:15:00,
2015-04-25 02:20:00,50.3,45.0,30.05,North,0,0.0,0.0,82,0.00,CLR,,0.00,WeatherDisplay:10.37,2015-04-25 06:20:00,
2015-04-25 02:25:00,50.3,45.0,30.05,North,0,0.0,0.0,82,0.00,CLR,,0.00,WeatherDisplay:10.37,2015-04-25 06:25:00,
2015-04-25 02:30:00,50.3,45.0,30.05,North,0,0.0,0.0,82,0.00,CLR,,0.00,WeatherDisplay:10.37,2015-04-25 06:30:00,
2015-04-25 02:35:00,50.3,45.0,30.05,North,0,0.0,0.0,82,0.00,CLR,,0.00,WeatherDisplay:10.37,2015-04-25 06:35:00,
2015-04-25 02:40:00,50.3,45.0,30.04,North,0,0.0,0.0,82,0.00,CLR,,0.00,WeatherDisplay:10.37,2015-04-25 06:40:00,
2015-04-25 02:45:00,50.3,45.0,30.04,North,0,0.0,0.0,82,0.00,CLR,,0.00,WeatherDisplay:10.37,2015-04-25 06:45:00,
2015-04-25 02:50:00,50.3,45.0,30.04,North,0,0.0,0.0,82,0.00,CLR,,0.00,WeatherDisplay:10.37,2015-04-25 06:50:00,
2015-04-25 02:55:00,50.3,45.0,30.04,North,0,0.0,0.0,82,0.00,CLR,,0.00,WeatherDisplay:10.37,2015-04-25 06:55:00,
2015-04-25 03:00:00,50.3,45.0,30.03,North,0,0.0,0.0,82,0.00,CLR,,0.00,WeatherDisplay:10.37,2015-04-25 07:00:00,
2015-04-25 03:05:00,50.3,45.0,30.03,North,0,0.0,0.0,82,0.00,CLR,,0.00,WeatherDisplay:10.37,2015-04-25 07:05:00,
2015-04-25 03:10:00,50.3,45.0,30.04,North,0,0.0,0.0,82,0.00,CLR,,0.00,WeatherDisplay:10.37,2015-04-25 07:10:00,
2015-04-25 03:15:00,50.3,45.0,30.03,North,0,0.0,0.0,82,0.00,CLR,,0.00,WeatherDisplay:10.37,2015-04-25 07:15:00,
2015-04-25 03:20:00,50.3,45.0,30.04,North,0,0.0,0.0,82,0.00,SCT,,0.00,WeatherDisplay:10.37,2015-04-25 07:20:00,
2015-04-25 03:25:00,50.3,45.0,30.04,North,0,0.0,0.0,82,0.00,SCT,,0.00,WeatherDisplay:10.37,2015-04-25 07:25:00,
2015-04-25 03:30:00,50.3,45.0,30.04,North,0,0.0,0.0,82,0.00,SCT,,0.00,WeatherDisplay:10.37,2015-04-25 07:30:00,
2015-04-25 03:35:00,50.3,45.0,30.04,North,0,0.0,0.0,82,0.00,SCT,,0.00,WeatherDisplay:10.37,2015-04-25 07:35:00,
2015-04-25 03:40:00,50.3,45.0,30.04,North,0,0.0,0.0,82,0.00,SCT,,0.00,WeatherDisplay:10.37,2015-04-25 07:40:00,
2015-04-25 03:45:00,54.5,48.1,30.04,South,171,0.3,2.3,79,0.00,SCT,,0.00,WeatherDisplay:10.37,2015-04-25 07:45:00,
2015-04-25 03:50:00,54.5,47.8,30.04,South,183,0.9,3.5,78,0.00,SCT,,0.00,WeatherDisplay:10.37,2015-04-25 07:50:00,
2015-04-25 03:55:00,54.7,48.0,30.03,SSW,194,0.0,3.5,78,0.00,SCT,,0.00,WeatherDisplay:10.37,2015-04-25 07:55:00,
2015-04-25 04:00:00,54.6,47.9,30.03,South,178,0.4,1.1,78,0.00,SCT,,0.00,WeatherDisplay:10.37,2015-04-25 08:00:00,
2015-04-25 04:05:00,54.6,48.2,30.03,SSE,165,0.4,2.3,79,0.00,OVC,,0.00,WeatherDisplay:10.37,2015-04-25 08:05:00,
2015-04-25 04:10:00,54.7,48.0,30.03,SSE,165,0.0,0.0,78,0.00,OVC,,0.00,WeatherDisplay:10.37,2015-04-25 08:10:00,
2015-04-25 04:15:00,54.7,48.3,30.03,SSE,165,0.4,2.3,79,0.00,OVC,,0.00,WeatherDisplay:10.37,2015-04-25 08:15:00,
2015-04-25 04:20:00,54.6,48.2,30.03,SSE,165,0.2,1.1,79,0.00,OVC,,0.00,WeatherDisplay:10.37,2015-04-25 08:20:00,
2015-04-25 04:30:00,54.7,48.6,30.03,SSE,165,0.0,0.0,80,0.00,OVC,,0.00,WeatherDisplay:10.37,2015-04-25 08:30:00,
2015-04-25 04:35:00,54.7,48.6,30.03,SSE,163,0.2,3.5,80,0.00,OVC,,0.00,WeatherDisplay:10.37,2015-04-25 08:35:00,
2015-04-25 04:40:00,54.6,48.2,30.03,SSE,163,0.0,1.1,79,0.00,OVC,,0.00,WeatherDisplay:10.37,2015-04-25 08:40:00,
2015-04-25 04:45:00,54.7,48.3,30.03,South,171,0.2,2.3,79,0.00,OVC,,0.00,WeatherDisplay:10.37,2015-04-25 08:45:00,
2015-04-25 04:50:00,54.7,48.6,30.03,South,171,0.0,1.1,80,0.00,OVC,,0.00,WeatherDisplay:10.37,2015-04-25 08:50:00,
2015-04-25 04:55:00,54.7,49.3,30.03,South,171,0.0,0.0,82,0.00,OVC,,0.00,WeatherDisplay:10.37,2015-04-25 08:55:00,
2015-04-25 05:00:00,54.6,49.2,30.02,South,171,0.0,0.0,82,0.00,OVC,,0.00,WeatherDisplay:10.37,2015-04-25 09:00:00,
2015-04-25 05:05:00,54.6,49.2,30.02,South,171,0.0,0.0,82,0.00,OVC,,0.00,WeatherDisplay:10.37,2015-04-25 09:05:00,
2015-04-25 05:10:00,54.6,49.2,30.03,North,0,0.0,0.0,82,0.00,OVC,,0.00,WeatherDisplay:10.37,2015-04-25 09:10:00,
2015-04-25 05:15:00,54.6,49.2,30.03,North,0,0.0,0.0,82,0.00,OVC,,0.00,WeatherDisplay:10.37,2015-04-25 09:15:00,
2015-04-25 05:20:00,54.6,49.2,30.03,North,0,0.0,0.0,82,0.00,OVC,,0.00,WeatherDisplay:10.37,2015-04-25 09:20:00,
2015-04-25 05:25:00,54.6,49.2,30.03,North,0,0.0,0.0,82,0.00,OVC,,0.00,WeatherDisplay:10.37,2015-04-25 09:25:00,
2015-04-25 05:30:00,54.6,49.2,30.02,North,0,0.0,0.0,82,0.00,OVC,,0.00,WeatherDisplay:10.37,2015-04-25 09:30:00,
2015-04-25 05:35:00,54.6,49.2,30.02,North,0,0.0,0.0,82,0.00,OVC,,0.00,WeatherDisplay:10.37,2015-04-25 09:35:00,
2015-04-25 05:40:00,54.6,49.2,30.02,North,0,0.0,0.0,82,0.00,OVC,,0.00,WeatherDisplay:10.37,2015-04-25 09:40:00,
2015-04-25 05:45:00,54.6,49.2,30.02,North,0,0.0,0.0,82,0.00,OVC,,0.00,WeatherDisplay:10.37,2015-04-25 09:45:00,
2015-04-25 05:50:00,54.6,49.2,30.02,North,0,0.0,0.0,82,0.00,OVC,,0.00,WeatherDisplay:10.37,2015-04-25 09:50:00,
2015-04-25 05:55:00,54.6,49.2,30.02,North,0,0.0,0.0,82,0.00,OVC,,0.00,WeatherDisplay:10.37,2015-04-25 09:55:00,
2015-04-25 06:00:00,54.6,49.2,30.02,North,0,0.0,0.0,82,0.00,OVC,,0.00,WeatherDisplay:10.37,2015-04-25 10:00:00,
2015-04-25 06:05:00,54.6,49.2,30.02,North,0,0.0,0.0,82,0.00,-RA,,0.00,WeatherDisplay:10.37,2015-04-25 10:05:00,
2015-04-25 06:10:00,54.6,49.2,30.02,North,0,0.0,0.0,82,0.00,-RA,,0.00,WeatherDisplay:10.37,2015-04-25 10:10:00,
2015-04-25 06:15:00,54.6,49.2,30.02,North,0,0.0,0.0,82,0.00,-RA,,0.00,WeatherDisplay:10.37,2015-04-25 10:15:00,
2015-04-25 06:20:00,54.6,49.2,30.02,North,0,0.0,0.0,82,0.00,-RA,,0.00,WeatherDisplay:10.37,2015-04-25 10:20:00,
2015-04-25 06:25:00,54.6,49.2,30.02,North,0,0.0,0.0,82,0.00,-RA,,0.00,WeatherDisplay:10.37,2015-04-25 10:25:00,
2015-04-25 06:30:00,54.6,49.2,30.02,North,0,0.0,0.0,82,0.00,-RA,,0.00,WeatherDisplay:10.37,2015-04-25 10:30:00,
2015-04-25 06:35:00,54.6,49.2,30.02,North,0,0.0,0.0,82,0.00,-RA,,0.00,WeatherDisplay:10.37,2015-04-25 10:35:00,
2015-04-25 06:40:00,54.6,49.2,30.02,North,0,0.0,0.0,82,0.00,-RA,,0.00,WeatherDisplay:10.37,2015-04-25 10:40:00,
2015-04-25 06:45:00,54.6,49.2,30.02,North,0,0.0,0.0,82,0.00,-RA,,0.00,WeatherDisplay:10.37,2015-04-25 10:45:00,
2015-04-25 06:50:00,54.6,49.2,30.02,North,0,0.0,0.0,82,0.00,-RA,,0.00,WeatherDisplay:10.37,2015-04-25 10:50:00,
2015-04-25 06:55:00,54.6,49.2,30.02,North,0,0.0,0.0,82,0.00,-RA,,0.00,WeatherDisplay:10.37,2015-04-25 10:55:00,
2015-04-25 07:00:00,54.6,49.2,30.02,North,0,0.0,0.0,82,0.00,-RA,,0.00,WeatherDisplay:10.37,2015-04-25 11:00:00,
2015-04-25 07:05:00,54.6,49.2,30.02,North,0,0.0,0.0,82,0.00,OVC,,0.00,WeatherDisplay:10.37,2015-04-25 11:05:00,
2015-04-25 07:10:00,54.6,49.2,30.02,North,0,0.0,0.0,82,0.00,OVC,,0.00,WeatherDisplay:10.37,2015-04-25 11:10:00,
2015-04-25 07:15:00,54.6,49.2,30.02,North,0,0.0,0.0,82,0.00,OVC,,0.00,WeatherDisplay:10.37,2015-04-25 11:15:00,
2015-04-25 07:20:00,54.6,49.2,30.02,North,0,0.0,0.0,82,0.00,OVC,,0.00,WeatherDisplay:10.37,2015-04-25 11:20:00,
2015-04-25 07:25:00,54.5,50.7,30.03,SW,216,0.6,5.8,87,0.00,OVC,,0.00,WeatherDisplay:10.37,2015-04-25 11:25:00,
2015-04-25 07:30:00,54.5,51.0,30.03,SSE,159,0.6,6.9,88,0.01,RA,,0.01,WeatherDisplay:10.37,2015-04-25 11:30:00,
2015-04-25 07:35:00,54.4,50.9,30.03,SSW,202,1.7,5.8,88,0.01,RA,,0.01,WeatherDisplay:10.37,2015-04-25 11:35:00,
2015-04-25 07:40:00,54.3,51.1,30.04,South,179,2.0,5.0,89,0.01,OVC,,0.01,WeatherDisplay:10.37,2015-04-25 11:40:00,
2015-04-25 07:45:00,54.2,51.0,30.04,SSW,195,1.8,3.0,89,0.01,OVC,,0.01,WeatherDisplay:10.37,2015-04-25 11:45:00,
2015-04-25 07:50:00,54.2,51.0,30.04,SW,216,0.8,3.5,89,0.01,OVC,,0.01,WeatherDisplay:10.37,2015-04-25 11:50:00,
2015-04-25 07:55:00,54.2,51.3,30.03,SSW,196,1.9,6.9,90,0.01,OVC,,0.01,WeatherDisplay:10.37,2015-04-25 11:55:00,
2015-04-25 08:00:00,54.2,51.3,30.03,SSW,202,4.5,6.9,90,0.01,OVC,,0.01,WeatherDisplay:10.37,2015-04-25 12:00:00,
2015-04-25 08:05:00,54.3,51.4,30.03,South,190,1.3,4.6,90,0.01,-RA,,0.01,WeatherDisplay:10.37,2015-04-25 12:05:00,
2015-04-25 08:10:00,54.4,51.8,30.03,WSW,239,1.4,1.4,91,0.01,-RA,,0.01,WeatherDisplay:10.37,2015-04-25 12:10:00,
2015-04-25 08:15:00,54.5,51.9,30.03,SW,223,1.3,5.8,91,0.01,-RA,,0.01,WeatherDisplay:10.37,2015-04-25 12:15:00,
2015-04-25 08:20:00,54.5,51.9,30.04,South,180,2.8,5.8,91,0.01,-RA,,0.01,WeatherDisplay:10.37,2015-04-25 12:20:00,
2015-04-25 08:25:00,54.6,52.0,30.04,SW,216,3.5,4.6,91,0.01,-RA,,0.01,WeatherDisplay:10.37,2015-04-25 12:25:00,
2015-04-25 08:30:00,54.6,52.3,30.04,SSW,207,0.9,7.0,92,0.01,-RA,,0.02,WeatherDisplay:10.37,2015-04-25 12:30:00,
2015-04-25 08:35:00,54.7,52.4,30.04,SSW,205,1.3,5.8,92,0.01,-RA,,0.02,WeatherDisplay:10.37,2015-04-25 12:35:00,
2015-04-25 08:40:00,54.8,52.5,30.04,SSW,212,2.4,3.5,92,0.01,-RA,,0.02,WeatherDisplay:10.37,2015-04-25 12:40:00,
2015-04-25 08:45:00,54.8,52.8,30.04,SW,228,0.2,2.3,93,0.01,-RA,,0.02,WeatherDisplay:10.37,2015-04-25 12:45:00,
2015-04-25 08:50:00,54.9,52.9,30.04,SW,216,0.4,2.3,93,0.01,-RA,,0.02,WeatherDisplay:10.37,2015-04-25 12:50:00,
2015-04-25 08:55:00,55.0,53.0,30.04,SSW,205,1.3,2.3,93,0.01,-RA,,0.02,WeatherDisplay:10.37,2015-04-25 12:55:00,
2015-04-25 09:00:00,55.1,53.1,30.04,South,187,1.8,2.3,93,0.02,-RA,,0.03,WeatherDisplay:10.37,2015-04-25 13:00:00,
2015-04-25 09:05:00,55.2,53.5,30.04,SSW,193,0.9,2.3,94,0.02,-RA,,0.03,WeatherDisplay:10.37,2015-04-25 13:05:00,
2015-04-25 09:10:00,55.3,53.6,30.04,SSW,192,0.6,4.6,94,0.03,-RA,,0.04,WeatherDisplay:10.37,2015-04-25 13:10:00,
2015-04-25 09:15:00,55.4,53.7,30.03,SSW,200,0.0,0.0,94,0.03,-RA,,0.05,WeatherDisplay:10.37,2015-04-25 13:15:00,
2015-04-25 09:20:00,55.5,53.8,30.04,SSW,201,0.0,0.0,94,0.04,-RA,,0.05,WeatherDisplay:10.37,2015-04-25 13:20:00,
2015-04-25 09:25:00,55.5,53.8,30.04,SSW,201,0.0,0.0,94,0.05,-RA,,0.06,WeatherDisplay:10.37,2015-04-25 13:25:00,
2015-04-25 09:30:00,55.6,54.2,30.04,SSW,201,0.0,0.0,95,0.04,-RA,,0.06,WeatherDisplay:10.37,2015-04-25 13:30:00,
2015-04-25 09:35:00,55.7,54.3,30.04,SSW,201,0.0,0.0,95,0.05,-RA,,0.07,WeatherDisplay:10.37,2015-04-25 13:35:00,
2015-04-25 09:40:00,55.9,54.5,30.04,SSW,200,0.0,2.3,95,0.05,-RA,,0.07,WeatherDisplay:10.37,2015-04-25 13:40:00,
2015-04-25 09:45:00,56.0,54.6,30.03,South,172,1.2,3.5,95,0.05,-RA,,0.07,WeatherDisplay:10.37,2015-04-25 13:45:00,
2015-04-25 09:50:00,56.0,54.6,30.03,SSE,161,0.1,3.5,95,0.06,-RA,,0.08,WeatherDisplay:10.37,2015-04-25 13:50:00,
2015-04-25 09:55:00,56.2,54.8,30.03,SSE,161,0.6,2.3,95,0.06,-RA,,0.08,WeatherDisplay:10.37,2015-04-25 13:55:00,
2015-04-25 10:00:00,56.2,54.8,30.03,SSE,161,0.2,1.1,95,0.05,-RA,,0.08,WeatherDisplay:10.37,2015-04-25 14:00:00,
2015-04-25 10:05:00,56.2,54.8,30.02,SSE,162,0.2,1.1,95,0.06,-RA,,0.09,WeatherDisplay:10.37,2015-04-25 14:05:00,
2015-04-25 10:10:00,56.3,54.9,30.02,SSW,211,0.8,3.5,95,0.05,-RA,,0.09,WeatherDisplay:10.37,2015-04-25 14:10:00,
2015-04-25 10:15:00,56.4,55.0,30.02,South,175,1.1,3.5,95,0.05,-RA,,0.09,WeatherDisplay:10.37,2015-04-25 14:15:00,
2015-04-25 10:20:00,56.4,55.3,30.02,SSE,148,0.0,3.5,96,0.04,-RA,,0.09,WeatherDisplay:10.37,2015-04-25 14:20:00,
2015-04-25 10:25:00,56.5,55.4,30.02,South,189,1.0,3.5,96,0.03,-RA,,0.09,WeatherDisplay:10.37,2015-04-25 14:25:00,
2015-04-25 10:30:00,56.5,55.1,30.01,South,187,0.8,2.3,95,0.03,-RA,,0.09,WeatherDisplay:10.37,2015-04-25 14:30:00,
2015-04-25 10:35:00,56.6,55.2,30.00,SSE,155,2.5,3.5,95,0.03,-RA,,0.10,WeatherDisplay:10.37,2015-04-25 14:35:00,
2015-04-25 10:40:00,56.6,55.5,30.00,South,173,0.6,3.5,96,0.03,-RA,,0.10,WeatherDisplay:10.37,2015-04-25 14:40:00,
2015-04-25 10:45:00,56.7,55.6,30.00,SE,140,0.8,3.0,96,0.03,-RA,,0.10,WeatherDisplay:10.37,2015-04-25 14:45:00,
2015-04-25 10:50:00,56.7,55.3,30.00,South,177,1.0,3.5,95,0.02,-RA,,0.10,WeatherDisplay:10.37,2015-04-25 14:50:00,
2015-04-25 10:55:00,56.8,55.4,29.99,SE,135,2.6,5.8,95,0.03,-RA,,0.11,WeatherDisplay:10.37,2015-04-25 14:55:00,
2015-04-25 11:00:00,56.8,55.4,29.98,SSE,147,2.2,5.8,95,0.03,-RA,,0.11,WeatherDisplay:10.37,2015-04-25 15:00:00,
2015-04-25 11:05:00,56.9,55.5,29.97,SE,142,5.6,9.2,95,0.02,-RA,,0.11,WeatherDisplay:10.37,2015-04-25 15:05:00,
2015-04-25 11:10:00,57.0,55.6,29.97,SSE,153,2.8,5.8,95,0.03,-RA,,0.12,WeatherDisplay:10.37,2015-04-25 15:10:00,
2015-04-25 11:15:00,57.1,56.0,29.97,SE,132,0.9,5.8,96,0.03,-RA,,0.12,WeatherDisplay:10.37,2015-04-25 15:15:00,
2015-04-25 11:20:00,57.3,56.2,29.97,South,190,1.5,6.9,96,0.04,-RA,,0.13,WeatherDisplay:10.37,2015-04-25 15:20:00,
2015-04-25 11:25:00,57.3,56.2,29.96,SSE,159,4.6,6.9,96,0.04,-RA,,0.13,WeatherDisplay:10.37,2015-04-25 15:25:00,
2015-04-25 11:30:00,57.5,56.4,29.95,South,177,5.1,10.4,96,0.04,-RA,,0.13,WeatherDisplay:10.37,2015-04-25 15:30:00,
2015-04-25 11:35:00,57.7,56.6,29.95,South,177,4.8,12.7,96,0.04,-RA,,0.14,WeatherDisplay:10.37,2015-04-25 15:35:00,
2015-04-25 11:40:00,57.9,56.8,29.95,South,186,4.8,6.9,96,0.04,-RA,,0.14,WeatherDisplay:10.37,2015-04-25 15:40:00,
2015-04-25 11:45:00,58.1,57.0,29.95,South,175,3.2,10.4,96,0.04,-RA,,0.14,WeatherDisplay:10.37,2015-04-25 15:45:00,
2015-04-25 11:50:00,58.3,57.2,29.94,SSE,166,2.3,9.2,96,0.05,-RA,,0.15,WeatherDisplay:10.37,2015-04-25 15:50:00,
2015-04-25 11:55:00,58.5,57.4,29.93,South,170,4.1,11.5,96,0.04,-RA,,0.15,WeatherDisplay:10.37,2015-04-25 15:55:00,
2015-04-25 12:00:00,58.7,57.6,29.94,South,182,4.3,6.0,96,0.04,-RA,,0.15,WeatherDisplay:10.37,2015-04-25 16:00:00,
2015-04-25 12:05:00,58.9,57.8,29.94,South,188,3.2,11.5,96,0.04,OVC,,0.15,WeatherDisplay:10.37,2015-04-25 16:05:00,
2015-04-25 12:10:00,59.2,58.1,29.95,SSE,167,5.3,8.1,96,0.03,OVC,,0.15,WeatherDisplay:10.37,2015-04-25 16:10:00,
2015-04-25 12:15:00,59.5,58.4,29.95,SSE,161,0.9,5.8,96,0.03,OVC,,0.15,WeatherDisplay:10.37,2015-04-25 16:15:00,
2015-04-25 12:20:00,59.8,58.7,29.94,SSW,212,3.5,7.0,96,0.02,OVC,,0.15,WeatherDisplay:10.37,2015-04-25 16:20:00,
2015-04-25 12:25:00,60.3,59.2,29.94,SSE,162,2.7,4.0,96,0.02,OVC,,0.15,WeatherDisplay:10.37,2015-04-25 16:25:00,
2015-04-25 12:30:00,60.6,59.5,29.94,SSW,200,1.4,6.9,96,0.02,OVC,,0.15,WeatherDisplay:10.37,2015-04-25 16:30:00,
2015-04-25 12:35:00,60.9,59.8,29.93,SSE,150,1.7,4.0,96,0.01,OVC,,0.15,WeatherDisplay:10.37,2015-04-25 16:35:00,
2015-04-25 12:40:00,61.1,60.0,29.93,South,179,0.6,3.5,96,0.01,OVC,,0.15,WeatherDisplay:10.37,2015-04-25 16:40:00,
2015-04-25 12:45:00,61.3,59.9,29.93,South,186,3.0,6.0,95,0.01,OVC,,0.15,WeatherDisplay:10.37,2015-04-25 16:45:00,
2015-04-25 12:50:00,61.6,60.2,29.93,SSW,194,2.4,4.0,95,0.00,OVC,,0.15,WeatherDisplay:10.37,2015-04-25 16:50:00,
2015-04-25 12:55:00,61.8,60.4,29.92,SSW,192,2.3,4.0,95,0.00,OVC,,0.15,WeatherDisplay:10.37,2015-04-25 16:55:00,
2015-04-25 13:00:00,61.9,60.5,29.91,SSE,155,2.5,5.8,95,0.00,OVC,,0.15,WeatherDisplay:10.37,2015-04-25 17:00:00,
2015-04-25 13:05:00,62.0,60.6,29.90,South,186,1.6,4.6,95,0.00,OVC,,0.15,WeatherDisplay:10.37,2015-04-25 17:05:00,
2015-04-25 13:10:00,62.1,60.7,29.90,SSE,160,2.6,3.5,95,0.00,OVC,,0.15,WeatherDisplay:10.37,2015-04-25 17:10:00,
2015-04-25 13:15:00,62.3,60.8,29.89,South,188,3.1,9.2,95,0.00,OVC,,0.15,WeatherDisplay:10.37,2015-04-25 17:15:00,
2015-04-25 13:20:00,62.6,61.1,29.90,South,185,4.7,4.7,95,0.00,OVC,,0.15,WeatherDisplay:10.37,2015-04-25 17:20:00,
2015-04-25 13:25:00,62.7,61.2,29.90,SSE,163,0.1,3.5,95,0.00,OVC,,0.15,WeatherDisplay:10.37,2015-04-25 17:25:00,
2015-04-25 13:30:00,62.8,61.0,29.89,SE,138,0.8,2.3,94,0.00,OVC,,0.15,WeatherDisplay:10.37,2015-04-25 17:30:00,
2015-04-25 13:35:00,62.8,61.0,29.90,SSW,195,5.8,9.2,94,0.00,OVC,,0.15,WeatherDisplay:10.37,2015-04-25 17:35:00,
2015-04-25 13:40:00,62.9,61.1,29.89,SSE,164,4.1,5.0,94,0.00,OVC,,0.15,WeatherDisplay:10.37,2015-04-25 17:40:00,
2015-04-25 13:45:00,63.0,60.9,29.89,South,171,3.4,8.1,93,0.00,OVC,,0.15,WeatherDisplay:10.37,2015-04-25 17:45:00,
2015-04-25 13:50:00,63.1,61.0,29.89,SSE,167,3.8,4.0,93,0.00,OVC,,0.15,WeatherDisplay:10.37,2015-04-25 17:50:00,
2015-04-25 13:55:00,63.2,61.4,29.88,South,190,3.5,4.6,94,0.00,OVC,,0.15,WeatherDisplay:10.37,2015-04-25 17:55:00,
2015-04-25 14:00:00,63.2,61.4,29.88,SSE,158,2.0,6.0,94,0.00,OVC,,0.15,WeatherDisplay:10.37,2015-04-25 18:00:00,
2015-04-25 14:10:00,63.3,61.5,29.88,South,190,3.8,7.0,94,0.00,OVC,,0.15,WeatherDisplay:10.37,2015-04-25 18:10:00,
2015-04-25 14:15:00,63.2,61.7,29.87,SSE,155,1.8,6.9,95,0.01,RA,,0.16,WeatherDisplay:10.37,2015-04-25 18:15:00,
2015-04-25 14:20:00,63.2,61.7,29.86,South,174,0.8,3.5,95,0.01,RA,,0.16,WeatherDisplay:10.37,2015-04-25 18:20:00,
2015-04-25 14:25:00,63.2,61.7,29.86,SSE,148,0.5,1.1,95,0.01,OVC,,0.16,WeatherDisplay:10.37,2015-04-25 18:25:00,
2015-04-25 14:30:00,63.2,61.7,29.86,SSE,160,0.6,3.5,95,0.01,OVC,,0.16,WeatherDisplay:10.37,2015-04-25 18:30:00,
2015-04-25 14:35:00,63.2,62.0,29.86,SSE,150,1.3,4.6,96,0.02,RA,,0.17,WeatherDisplay:10.37,2015-04-25 18:35:00,
2015-04-25 14:40:00,63.2,62.0,29.85,SSE,162,0.8,3.5,96,0.02,RA,,0.17,WeatherDisplay:10.37,2015-04-25 18:40:00,
2015-04-25 14:45:00,63.2,62.0,29.85,SSE,148,0.0,4.6,96,0.02,OVC,,0.18,WeatherDisplay:10.37,2015-04-25 18:45:00,
2015-04-25 14:50:00,63.2,62.0,29.85,SSE,155,2.9,6.0,96,0.03,-RA,,0.18,WeatherDisplay:10.37,2015-04-25 18:50:00,
2015-04-25 14:55:00,63.2,62.0,29.84,SSE,167,2.8,4.6,96,0.03,-RA,,0.18,WeatherDisplay:10.37,2015-04-25 18:55:00,
2015-04-25 15:00:00,63.2,62.0,29.84,SSE,167,2.9,5.8,96,0.03,-RA,,0.18,WeatherDisplay:10.37,2015-04-25 19:00:00,
2015-04-25 15:05:00,63.2,62.0,29.84,South,171,0.7,3.5,96,0.03,-RA,,0.18,WeatherDisplay:10.37,2015-04-25 19:05:00,
2015-04-25 15:10:00,63.2,62.0,29.84,South,188,0.1,2.3,96,0.03,-RA,,0.18,WeatherDisplay:10.37,2015-04-25 19:10:00,
2015-04-25 15:15:00,63.2,62.0,29.84,South,188,3.8,8.1,96,0.02,-RA,,0.18,WeatherDisplay:10.37,2015-04-25 19:15:00,
2015-04-25 15:20:00,63.3,62.1,29.83,SSE,159,1.9,4.6,96,0.02,-RA,,0.18,WeatherDisplay:10.37,2015-04-25 19:20:00,
2015-04-25 15:25:00,63.4,62.2,29.83,SSW,202,0.0,0.0,96,0.02,-RA,,0.18,WeatherDisplay:10.37,2015-04-25 19:25:00,
2015-04-25 15:30:00,63.4,62.2,29.83,SSE,156,1.7,3.5,96,0.02,-RA,,0.18,WeatherDisplay:10.37,2015-04-25 19:30:00,
2015-04-25 15:35:00,63.4,62.2,29.82,SSE,148,0.1,3.5,96,0.01,-RA,,0.18,WeatherDisplay:10.37,2015-04-25 19:35:00,
2015-04-25 15:40:00,63.4,62.2,29.82,South,187,2.0,4.6,96,0.01,-RA,,0.18,WeatherDisplay:10.37,2015-04-25 19:40:00,
2015-04-25 15:45:00,63.5,62.3,29.82,SSE,159,0.9,4.0,96,0.00,-RA,,0.18,WeatherDisplay:10.37,2015-04-25 19:45:00,
2015-04-25 15:50:00,63.6,62.4,29.82,South,176,0.8,3.5,96,0.00,-RA,,0.18,WeatherDisplay:10.37,2015-04-25 19:50:00,
2015-04-25 15:55:00,63.7,62.5,29.81,WSW,239,1.1,3.5,96,0.00,-RA,,0.18,WeatherDisplay:10.37,2015-04-25 19:55:00,
2015-04-25 16:00:00,63.8,62.6,29.81,SSW,195,0.0,1.1,96,0.00,-RA,,0.18,WeatherDisplay:10.37,2015-04-25 20:00:00,
2015-04-25 16:05:00,63.8,62.6,29.81,SSW,200,1.8,4.6,96,0.00,-RA,,0.18,WeatherDisplay:10.37,2015-04-25 20:05:00,
2015-04-25 16:10:00,63.9,62.7,29.80,SSE,167,3.0,5.8,96,0.00,-RA,,0.18,WeatherDisplay:10.37,2015-04-25 20:10:00,
2015-04-25 16:15:00,64.0,62.8,29.79,SSE,150,4.0,8.1,96,0.01,-RA,,0.19,WeatherDisplay:10.37,2015-04-25 20:15:00,
2015-04-25 16:20:00,64.1,62.9,29.79,South,191,0.2,4.0,96,0.01,-RA,,0.19,WeatherDisplay:10.37,2015-04-25 20:20:00,
2015-04-25 16:25:00,64.3,63.4,29.80,SSW,194,2.4,5.8,97,0.01,-RA,,0.19,WeatherDisplay:10.37,2015-04-25 20:25:00,
2015-04-25 16:30:00,64.4,63.5,29.80,South,187,4.8,11.5,97,0.01,-RA,,0.19,WeatherDisplay:10.37,2015-04-25 20:30:00,
2015-04-25 16:31:00,64.4,63.5,29.80,SSE,156,1.9,11.5,97,0.01,-RA,,0.19,WeatherDisplay:10.37,2015-04-25 20:31:00,
2015-04-25 16:36:00,64.5,63.6,29.80,SW,225,1.6,7.0,97,0.01,-RA,,0.19,WeatherDisplay:10.37,2015-04-25 20:36:00,
2015-04-25 16:41:00,64.6,63.4,29.79,South,190,1.1,5.8,96,0.01,-RA,,0.19,WeatherDisplay:10.37,2015-04-25 20:41:00,
2015-04-25 16:46:00,64.6,63.4,29.79,South,182,2.0,5.8,96,0.01,-RA,,0.19,WeatherDisplay:10.37,2015-04-25 20:46:00,
2015-04-25 16:51:00,64.5,63.3,29.79,SW,215,0.7,4.6,96,0.01,-RA,,0.19,WeatherDisplay:10.37,2015-04-25 20:51:00,
2015-04-25 16:56:00,64.5,63.3,29.80,South,183,1.2,6.0,96,0.01,-RA,,0.19,WeatherDisplay:10.37,2015-04-25 20:56:00,
2015-04-25 17:06:00,64.6,63.4,29.79,SSW,202,0.5,3.5,96,0.01,-RA,,0.19,WeatherDisplay:10.37,2015-04-25 21:06:00,
2015-04-25 17:11:00,64.6,63.7,29.79,SW,230,0.9,4.0,97,0.01,-RA,,0.19,WeatherDisplay:10.37,2015-04-25 21:11:00,
2015-04-25 17:16:00,64.7,63.8,29.79,SSE,157,0.5,5.0,97,0.00,-RA,,0.19,WeatherDisplay:10.37,2015-04-25 21:16:00,
2015-04-25 17:21:00,64.7,63.8,29.79,SW,216,2.2,5.8,97,0.00,-RA,,0.19,WeatherDisplay:10.37,2015-04-25 21:21:00,
2015-04-25 17:26:00,64.7,63.8,29.79,SSE,163,0.0,5.8,97,0.00,-RA,,0.19,WeatherDisplay:10.37,2015-04-25 21:26:00,
2015-04-25 17:31:00,64.7,63.8,29.78,SSW,200,1.3,6.9,97,0.00,-RA,,0.19,WeatherDisplay:10.37,2015-04-25 21:31:00,
2015-04-25 17:36:00,64.7,63.8,29.78,South,185,1.0,2.0,97,0.00,-RA,,0.19,WeatherDisplay:10.37,2015-04-25 21:36:00,
2015-04-25 17:41:00,64.7,63.8,29.78,South,185,0.5,4.0,97,0.00,-RA,,0.19,WeatherDisplay:10.37,2015-04-25 21:41:00,
2015-04-25 17:46:00,64.7,63.8,29.78,SW,215,3.7,5.8,97,0.00,-RA,,0.19,WeatherDisplay:10.37,2015-04-25 21:46:00,